Millerville, Alabama
Current Conditions -  °F | °C
As of 12:35 PM on Wednesday 26 Nov 2014 (Local Time) from KALX Reporting Station
Clear Clear  
Wind Chill: 59°   Ceiling: Unl
Heat Index: 59°   Visibility: 10mi
Dew Point: 18°   Wind: 13mph
Humidity: 20%   Direction: 280°W
Pressure: 30.13"   Gusts: 17mph
Location:  33.19°N, 85.93°W
Report Text: KALX 261835Z AUTO 28011G15KT 230V290 10SM CLR 15/M08 A3013 RMK AO2 T01511079
Loading
Personal Weather Stations






























Interactive Weather Map New forecast layout! Learn more

10-Day Weather Forecast

Advertisements
Track Severe Weather on mobile